Limon International Airport
MRLM : rendu visible

Aérodrome :











RETROUVEZ-NOUS SUR...

 
LOGIN :

S'inscrire | Disclaimer

   EN    FR    IT 

 









Légende :    VFR   VFR Marginal   IFR   IFR Intensif   IFR Très Intensif
Visi : 
Plafond : 
>= 8 km
>= 3000ft
5 à 8 km
1000 à 3000 ft
1500m à 5 km
500 à 1000 ft
800 à 1500m
200 à 500 ft
< 800m
< 200 ft
Symboles :   Orages  Brouillard  Fortes neiges  Fortes précipitations  Vent > 20 kt






- Altitude de l'aérodrome : 7 ft
- Code IATA : LIO


MRLM - Limon International

DERNIER METAR :
  • 132100Z 03002KT CAVOK 28/23 A2985

METARs EXPIRÉS :
  • 132000Z 22002KT CAVOK 28/23 A2986
  • 131900Z 24003KT 9999 -DZ FEW015 OVC100 27/24 A2989
  • 131800Z 22003KT 9999 -DZ FEW010 OVC090 26/24 A2992

TAF MRLM
Valide du 13 à 18h jusqu'au 14 à 18h UTC


131700Z 1318/1418 23005KT 9999 SCT020 BKN100 TX29/1418Z TN22/1411Z
TEMPO 1318/1323 34006KT RA BKN020
TEMPO 1406/1412 DZ BKN020
FIR MHTG / Amérique du Nord



MET'MAP, la Météo Aéronautique d'un coup d'oeil ! - Copyright ORBIFLY Décembre 2007 - Disclaimer

ORBIFLY MET'MAP TEAM :

Programmation & Développement : Alexandra Zaïnal
Sur une idée originale de : Baudouin d'Aumeries
Assistance à la programmation : Marc-Olivier Méhu
Soutien technique & logistique : Manuel Goepfert

Contact : metmap@orbifly.com




SOURCES & CREDITS :

   NOAA       Earth
Advisory